Latest Weather Observations for Bombala AWS

IDN60801

Issued at 10:32 am EDT Monday 27 February 2017 (issued every 30 minutes, with the page automatically refreshed every 10 minutes)

About weather observations | Map of weather stations | Latest weather observations for NSW | Other Formats
Station Details ID: 070328 Name: BOMBALA AWS Lat: -37.00 Lon: 149.23 Height: 760.5 m
Data from the previous 72 hours. | See also: Recent months at Bombala AWS
Date/Time
EDT
Temp
°C
App
Temp
°C
Dew
Point
°C
Rel
Hum
%
Delta-T
°C
Wind Press
QNH
hPa
Press
MSL
hPa
Rain since
9am
mm
Dir  Spd
km/h
Gust
km/h
Spd
kts
Gust
kts
27/10:30am 14.5 14.7 13.2 92 0.7 NNW 4 7 2 4 1028.2 1025.5 0.0
27/10:00am 13.5 13.2 13.2 98 0.2 NNW 7 11 4 6 1028.2 1025.5 0.0
27/09:30am 12.8 12.0 12.8 100 0.0 NNW 9 11 5 6 1028.2 1025.5 0.0
27/09:00am 11.9 11.2 11.9 100 0.0 N 7 9 4 5 1027.9 1025.3 0.0
27/08:30am 10.9 10.1 10.9 100 0.0 N 6 7 3 4 1027.8 1025.2 0.0
27/08:00am 10.3 9.2 10.1 99 0.1 NNW 6 6 3 3 1027.5 1024.9 0.0
27/07:30am 9.7 8.3 9.4 98 0.2 N 7 9 4 5 1027.3 1024.6 0.0
27/07:00am 9.6 8.6 9.0 96 0.3 NNW 4 6 2 3 1027.1 1024.4 0.0
27/06:30am 9.5 8.1 8.9 96 0.3 N 6 7 3 4 1026.8 1024.1 0.0
27/06:00am 9.4 8.0 8.8 96 0.3 N 6 7 3 4 1026.5 1023.9 0.0
27/05:30am 9.2 7.6 8.7 97 0.3 N 7 7 4 4 1026.2 1023.5 0.0
27/05:00am 9.1 7.7 8.8 98 0.2 NNW 6 7 3 4 1026.0 1023.3 0.0
27/04:30am 8.8 7.4 8.7 99 0.1 NNW 6 7 3 4 1026.1 1023.4 0.0
27/04:00am 8.5 7.0 8.4 99 0.1 NNW 6 9 3 5 1026.2 1023.5 0.0
27/03:30am 8.9 7.5 8.9 100 0.0 NW 6 6 3 3 1026.4 1023.8 0.0
27/03:00am 8.1 6.5 8.0 99 0.0 NW 6 6 3 3 1026.7 1024.0 0.0
27/02:30am 6.5 3.9 6.2 98 0.1 NW 9 9 5 5 1026.7 1024.0 0.0
27/02:00am 7.1 5.2 6.8 98 0.1 WNW 6 7 3 4 1026.7 1024.0 0.0
27/01:30am 7.7 6.3 7.1 96 0.3 NNW 4 4 2 2 1026.9 1024.2 0.0
27/01:00am 8.8 7.6 8.0 95 0.4 NNW 4 4 2 2 1027.3 1024.6 0.0
27/12:30am 8.8 7.6 7.9 94 0.4 NNW 4 4 2 2 1027.1 1024.4 0.0
27/12:00am 9.3 8.6 8.4 94 0.5 NNW 2 4 1 2 1027.1 1024.4 0.0
 
Date/Time
EDT
Temp
°C
App
Temp
°C
Dew
Point
°C
Rel
Hum
%
Delta-T
°C
Wind Press
QNH
hPa
Press
MSL
hPa
Rain since
9am
mm
Dir  Spd
km/h
Gust
km/h
Spd
kts
Gust
kts
26/11:30pm 9.2 7.9 7.8 91 0.7 NNW 4 9 2 5 1027.2 1024.5 0.0
26/11:00pm 9.5 8.3 7.9 90 0.8 NE 4 6 2 3 1027.4 1024.7 0.0
26/10:30pm 10.1 8.6 8.5 90 0.8 NE 6 7 3 4 1027.3 1024.6 0.0
26/10:00pm 10.3 9.2 8.4 88 1.0 NE 4 4 2 2 1027.2 1024.5 0.0
26/09:30pm 10.5 8.8 8.3 86 1.1 ENE 7 9 4 5 1027.1 1024.4 0.0
26/09:00pm 10.8 9.0 8.0 83 1.4 ENE 7 15 4 8 1026.9 1024.2 0.0
26/08:30pm 11.4 9.3 8.1 80 1.7 ENE 9 13 5 7 1026.3 1023.7 0.0
26/08:00pm 12.6 9.7 8.3 75 2.2 ENE 13 20 7 11 1026.0 1023.3 0.0
26/07:30pm 13.9 10.7 8.3 69 2.9 ENE 15 24 8 13 1025.8 1023.1 0.0
26/07:00pm 15.5 12.3 8.5 63 3.7 ENE 15 24 8 13 1025.3 1022.6 0.0
26/06:30pm 16.8 13.5 8.0 56 4.6 ENE 15 22 8 12 1025.1 1022.5 0.0
26/06:00pm 17.6 14.6 7.9 53 5.1 ENE 13 19 7 10 1024.8 1022.1 0.0
26/05:30pm 18.3 15.8 8.0 51 5.5 NE 11 22 6 12 1024.7 1022.0 0.0
26/05:00pm 18.6 16.0 7.7 49 5.7 ENE 11 19 6 10 1024.8 1022.1 0.0
26/04:30pm 18.4 15.8 7.8 50 5.6 NE 11 17 6 9 1024.8 1022.1 0.0
26/04:00pm 18.0 16.0 8.6 54 5.0 ENE 9 17 5 9 1024.9 1022.2 0.0
26/03:30pm 18.4 15.8 9.5 56 4.9 ENE 13 22 7 12 1025.0 1022.3 0.0
26/03:00pm 17.3 14.9 8.7 57 4.6 NE 11 19 6 10 1025.4 1022.7 0.0
26/02:30pm 17.5 14.9 9.2 58 4.5 NE 13 17 7 9 1025.6 1022.9 0.0
26/02:00pm 16.5 14.4 8.2 58 4.4 NE 9 13 5 7 1025.8 1023.1 0.0
26/01:30pm 16.2 13.5 8.9 62 3.9 ENE 13 24 7 13 1026.0 1023.3 0.0
26/01:00pm 16.2 14.1 8.4 60 4.1 ENE 9 17 5 9 1026.1 1023.4 0.0
26/12:30pm 15.2 12.7 8.4 64 3.6 NNE 11 15 6 8 1026.3 1023.7 0.0
26/12:00pm 15.4 13.5 7.7 60 4.0 ENE 7 17 4 9 1026.3 1023.7 0.0
26/11:30am 15.0 12.2 8.5 65 3.4 NE 13 19 7 10 1026.5 1023.9 0.0
26/11:00am 14.2 11.8 8.6 69 2.9 NNE 11 15 6 8 1027.0 1024.3 0.0
26/10:30am 13.8 12.0 9.6 76 2.2 ENE 9 15 5 8 1026.9 1024.2 0.0
26/10:00am 12.8 10.6 9.3 79 1.8 NE 11 15 6 8 1027.0 1024.3 0.0
26/09:30am 13.2 11.2 8.5 73 2.4 ENE 9 15 5 8 1026.5 1023.9 0.0
26/09:00am 11.8 10.0 9.5 86 1.2 ENE 9 13 5 7 1026.3 1023.7 0.0
26/08:30am 12.0 10.7 9.2 83 1.5 NE 6 9 3 5 1026.3 1023.7 0.0
26/08:00am 11.8 11.1 9.9 88 1.0 NNE 4 6 2 3 1026.2 1023.5 0.0
26/07:30am 11.2 9.9 9.8 91 0.7 E 7 13 4 7 1025.7 1023.0 0.0
26/07:00am 11.0 10.0 10.2 95 0.4 E 6 7 3 4 1025.4 1022.7 0.0
26/06:30am 10.7 10.0 10.1 96 0.3 SE 4 6 2 3 1025.0 1022.3 0.0
26/06:00am 10.8 10.9 10.0 95 0.4 CALM 0 0 0 0 1024.7 1022.0 0.0
26/05:30am 10.8 10.5 10.0 95 0.4 SE 2 4 1 2 1024.5 1021.8 0.0
26/05:00am 11.0 11.0 9.9 93 0.6 CALM 0 0 0 0 1024.3 1021.6 0.0
26/04:30am 10.9 10.9 9.8 93 0.6 CALM 0 0 0 0 1024.5 1021.8 0.0
26/04:00am 10.5 10.4 9.3 92 0.6 CALM 0 2 0 1 1024.5 1021.8 0.0
26/03:30am 10.6 9.6 9.0 90 0.8 SE 4 4 2 2 1024.5 1021.8 0.0
26/03:00am 10.9 9.6 9.2 89 0.9 SE 6 7 3 4 1024.7 1022.0 0.0
26/02:30am 11.3 9.9 9.4 88 1.0 ESE 7 11 4 6 1024.8 1022.1 0.0
26/02:00am 11.2 9.7 9.1 87 1.1 ESE 7 9 4 5 1025.0 1022.3 0.0
26/01:30am 11.2 9.9 9.1 87 1.1 ESE 6 9 3 5 1025.4 1022.7 0.0
26/01:00am 11.1 9.7 9.0 87 1.1 E 6 9 3 5 1025.6 1022.9 0.0
26/12:30am 11.3 9.5 9.4 88 1.0 ESE 9 13 5 7 1025.8 1023.1 0.0
26/12:00am 11.3 9.1 9.4 88 1.0 ESE 11 15 6 8 1025.8 1023.1 0.0
 
Date/Time
EDT
Temp
°C
App
Temp
°C
Dew
Point
°C
Rel
Hum
%
Delta-T
°C
Wind Press
QNH
hPa
Press
MSL
hPa
Rain since
9am
mm
Dir  Spd
km/h
Gust
km/h
Spd
kts
Gust
kts
25/11:30pm 11.3 9.5 9.4 88 1.0 ESE 9 13 5 7 1025.9 1023.2 0.0
25/11:00pm 11.3 8.7 9.4 88 1.0 ESE 13 20 7 11 1025.8 1023.1 0.0
25/10:30pm 11.2 8.6 9.5 89 0.9 ESE 13 20 7 11 1025.8 1023.1 0.0
25/10:00pm 11.2 8.7 9.8 91 0.7 ESE 13 19 7 10 1025.9 1023.2 0.0
25/09:30pm 11.4 8.1 9.7 89 0.9 E 17 28 9 15 1025.8 1023.1 0.0
25/09:00pm 11.9 9.2 10.5 91 0.7 ESE 15 20 8 11 1025.4 1022.7 0.0
25/08:30pm 12.1 9.0 10.2 88 1.0 ESE 17 32 9 17 1024.8 1022.1 0.0
25/08:00pm 12.9 11.7 11.5 91 0.8 ESE 9 15 5 8 1024.5 1021.8 0.0
25/07:30pm 12.9 11.2 11.3 90 0.9 E 11 15 6 8 1024.1 1021.4 0.0
25/07:00pm 13.1 11.4 11.3 89 1.0 E 11 17 6 9 1023.7 1021.0 0.0
25/06:30pm 12.9 11.0 11.8 93 0.6 E 13 19 7 10 1023.6 1020.9 0.0
25/06:00pm 13.0 11.0 11.6 91 0.8 ESE 13 20 7 11 1023.6 1020.9 0.0
25/05:30pm 15.0 12.9 11.2 78 2.1 E 13 20 7 11 1023.5 1020.8 0.0
25/05:00pm 15.0 12.9 11.2 78 2.1 ESE 13 20 7 11 1023.6 1020.9 0.0
25/04:30pm 14.7 12.4 10.5 76 2.3 ESE 13 19 7 10 1023.6 1020.9 0.0
25/04:00pm 14.7 12.0 10.3 75 2.4 E 15 20 8 11 1023.7 1021.0 0.0
25/03:30pm 15.3 12.5 10.1 71 2.8 E 15 20 8 11 1023.9 1021.1 0.0
25/03:00pm 16.3 13.1 9.9 66 3.5 E 17 24 9 13 1023.7 1021.0 0.0
25/02:30pm 16.5 13.7 9.9 65 3.6 ESE 15 20 8 11 1024.1 1021.4 0.0
25/02:00pm 16.7 13.7 9.4 62 3.9 E 15 22 8 12 1024.3 1021.6 0.0
25/01:30pm 17.5 15.4 9.9 61 4.2 ESE 11 17 6 9 1024.4 1021.7 0.0
25/01:00pm 16.7 14.4 9.1 61 4.1 ESE 11 17 6 9 1024.5 1021.8 0.0
25/12:30pm 16.8 14.7 9.7 63 3.9 ESE 11 19 6 10 1024.8 1022.1 0.0
25/12:00pm 16.2 14.3 9.2 63 3.7 ENE 9 15 5 8 1024.9 1022.2 0.0
25/11:30am 16.9 15.1 9.3 61 4.1 ENE 9 17 5 9 1024.9 1022.2 0.0
25/11:00am 15.6 14.1 8.4 62 3.8 ESE 6 11 3 6 1025.0 1022.3 0.0
25/10:30am 15.5 14.0 8.3 62 3.8 ESE 6 11 3 6 1024.9 1022.2 0.0
25/10:00am 13.8 12.1 8.2 69 2.9 SSE 7 11 4 6 1025.0 1022.3 0.0
25/09:30am 13.0 11.9 8.3 73 2.4 SE 4 9 2 5 1024.9 1022.2 0.0
25/09:00am 11.9 11.1 8.2 78 1.9 SW 2 6 1 3 1024.6 1021.9 0.0
25/08:30am 11.4 9.7 8.4 82 1.5 SW 7 9 4 5 1024.7 1022.0 0.0
25/08:00am 11.1 10.0 8.3 83 1.4 SSW 4 6 2 3 1024.6 1021.9 0.0
25/07:30am 10.7 9.6 8.3 85 1.2 S 4 7 2 4 1024.5 1021.8 0.0
25/07:00am 10.3 8.2 8.1 86 1.1 SSE 9 15 5 8 1024.4 1021.7 0.0
25/06:30am 10.4 8.2 7.8 84 1.3 SSE 9 11 5 6 1024.3 1021.6 0.0
25/06:00am 10.5 8.3 7.7 83 1.4 SSE 9 11 5 6 1024.1 1021.4 0.0
25/05:30am 10.7 8.1 7.6 81 1.6 SSW 11 19 6 10 1023.9 1021.1 0.0
25/05:00am 10.6 7.5 7.3 80 1.6 SSW 13 17 7 9 1023.6 1020.9 0.0
25/04:30am 10.5 7.4 7.2 80 1.6 S 13 19 7 10 1023.6 1020.9 0.0
25/04:00am 10.4 7.2 6.9 79 1.7 SSW 13 20 7 11 1023.5 1020.8 0.0
25/03:30am 10.2 7.4 7.1 81 1.5 SSW 11 19 6 10 1023.5 1020.8 0.0
25/03:00am 9.7 7.7 7.1 84 1.3 SSW 7 9 4 5 1023.6 1020.9 0.0
25/02:30am 9.4 7.9 6.8 84 1.3 SSW 4 6 2 3 1024.0 1021.3 0.0
25/02:00am 9.8 7.8 6.9 82 1.4 SSW 7 9 4 5 1024.1 1021.4 0.0
25/01:30am 8.6 6.1 6.4 86 1.1 S 9 11 5 6 1024.4 1021.7 0.0
25/01:00am 8.6 6.4 6.1 84 1.2 SSW 7 7 4 4 1024.6 1021.9 0.0
25/12:30am 8.9 5.9 6.2 83 1.3 SSW 11 13 6 7 1024.7 1022.0 0.0
25/12:00am 9.5 7.0 6.4 81 1.5 SW 9 13 5 7 1024.9 1022.2 0.0
 
Date/Time
EDT
Temp
°C
App
Temp
°C
Dew
Point
°C
Rel
Hum
%
Delta-T
°C
Wind Press
QNH
hPa
Press
MSL
hPa
Rain since
9am
mm
Dir  Spd
km/h
Gust
km/h
Spd
kts
Gust
kts
24/11:30pm 10.2 7.0 6.7 79 1.7 SW 13 15 7 8 1025.1 1022.5 0.0
24/11:00pm 10.7 7.5 6.8 77 1.9 SW 13 20 7 11 1025.1 1022.5 0.0
24/10:30pm 11.2 6.7 7.1 76 2.0 SW 20 28 11 15 1025.1 1022.5 0.0
24/10:00pm 11.6 7.2 7.5 76 2.1 SW 20 28 11 15 1025.3 1022.6 0.0
24/09:30pm 12.2 9.9 8.9 80 1.7 SW 11 15 6 8 1025.6 1022.9 0.0
24/09:00pm 12.2 10.3 9.2 82 1.6 S 9 13 5 7 1025.3 1022.6 0.0
24/08:30pm 11.9 8.9 9.3 84 1.4 S 15 19 8 10 1024.9 1022.2 0.0
24/08:00pm 11.7 9.4 9.1 84 1.4 SSE 11 15 6 8 1024.6 1021.9 0.0
24/07:30pm 12.8 8.9 9.3 79 1.8 S 20 24 11 13 1024.2 1021.5 0.0
24/07:00pm 13.6 9.5 10.0 79 1.9 S 22 28 12 15 1023.9 1021.1 0.0
24/06:30pm 14.4 10.8 10.4 77 2.2 S 20 26 11 14 1023.4 1020.7 0.0
24/06:00pm 14.4 11.1 11.6 83 1.6 SSE 20 28 11 15 1023.1 1020.4 0.0
24/05:30pm 14.7 10.6 11.5 81 1.8 SE 24 30 13 16 1022.7 1019.9 0.0
24/05:00pm 16.0 11.6 11.8 76 2.4 SSE 26 33 14 18 1022.3 1019.6 0.0
24/04:30pm 18.1 13.4 12.1 68 3.4 SSE 28 32 15 17 1022.0 1019.3 0.0
24/04:00pm 19.9 15.5 12.9 64 4.1 SE 28 37 15 20 1021.7 1019.0 0.0
24/03:30pm 21.3 18.0 12.7 58 5.1 SE 22 30 12 16 1021.6 1018.8 0.0
24/03:00pm 22.5 19.1 13.6 57 5.3 SE 24 33 13 18 1021.8 1019.1 0.0
24/02:30pm 23.4 20.7 13.6 54 5.9 SE 20 32 11 17 1021.8 1019.1 0.0
24/02:00pm 22.9 19.6 12.8 53 6.0 SE 22 33 12 18 1022.0 1019.3 0.0
24/01:56pm 23.2 20.8 12.8 52 6.2 SSE 17 33 9 18 1022.0 1019.3 0.0
24/01:30pm 22.1 21.4 11.5 51 6.1 SSE 6 11 3 6 1022.3 1019.6 0.0
24/01:00pm 22.3 20.1 12.0 52 6.0 SSE 15 22 8 12 1022.6 1019.8 0.0
24/12:30pm 21.6 21.1 12.2 55 5.5 S 6 13 3 7 1023.0 1020.3 0.0
24/12:00pm 20.5 19.7 11.7 57 5.0 NNE 7 17 4 9 1023.2 1020.5 0.0
24/11:30am 19.3 19.0 11.6 61 4.4 WNW 4 9 2 5 1023.5 1020.8 0.0
24/11:00am 18.9 18.4 11.9 64 4.0 ESE 6 7 3 4 1023.7 1021.0 0.0

Other Formats:

Comma delimited format used in spreadsheet applications
http://www.bom.gov.au/fwo/IDN60801/IDN60801.94929.axf

JavaScript Object Notation format (JSON) in row-major order
http://www.bom.gov.au/fwo/IDN60801/IDN60801.94929.json